sensor_id;sensor_type;location;lat;lon;timestamp;P1;durP1;ratioP1;P2;durP2;ratioP2
65567;SDS011;52211;50.154;8.682;2023-05-07T00:02:03;1.53;;;1.43;;
65567;SDS011;52211;50.154;8.682;2023-05-07T00:04:29;2.10;;;1.33;;
65567;SDS011;52211;50.154;8.682;2023-05-07T00:07:03;1.30;;;1.20;;
65567;SDS011;52211;50.154;8.682;2023-05-07T00:09:30;1.40;;;1.30;;
65567;SDS011;52211;50.154;8.682;2023-05-07T00:12:00;1.73;;;1.10;;
65567;SDS011;52211;50.154;8.682;2023-05-07T00:14:27;1.60;;;1.30;;
65567;SDS011;52211;50.154;8.682;2023-05-07T00:16:57;2.37;;;1.60;;
65567;SDS011;52211;50.154;8.682;2023-05-07T00:19:26;1.30;;;1.20;;
65567;SDS011;52211;50.154;8.682;2023-05-07T00:21:53;1.50;;;1.40;;
65567;SDS011;52211;50.154;8.682;2023-05-07T00:24:23;1.50;;;1.40;;
65567;SDS011;52211;50.154;8.682;2023-05-07T00:26:52;1.53;;;1.43;;
65567;SDS011;52211;50.154;8.682;2023-05-07T00:29:21;1.23;;;1.20;;
65567;SDS011;52211;50.154;8.682;2023-05-07T00:31:50;1.30;;;1.20;;
65567;SDS011;52211;50.154;8.682;2023-05-07T00:34:20;1.83;;;1.57;;
65567;SDS011;52211;50.154;8.682;2023-05-07T00:36:49;2.50;;;1.67;;
65567;SDS011;52211;50.154;8.682;2023-05-07T00:39:18;1.77;;;1.67;;
65567;SDS011;52211;50.154;8.682;2023-05-07T00:41:49;1.50;;;1.43;;
65567;SDS011;52211;50.154;8.682;2023-05-07T00:44:17;1.70;;;1.60;;
65567;SDS011;52211;50.154;8.682;2023-05-07T00:46:46;1.30;;;1.30;;
65567;SDS011;52211;50.154;8.682;2023-05-07T00:49:16;1.87;;;1.77;;
65567;SDS011;52211;50.154;8.682;2023-05-07T00:51:47;1.67;;;1.57;;
65567;SDS011;52211;50.154;8.682;2023-05-07T00:54:16;1.60;;;1.50;;
65567;SDS011;52211;50.154;8.682;2023-05-07T00:56:48;1.50;;;1.33;;
65567;SDS011;52211;50.154;8.682;2023-05-07T00:59:17;4.17;;;1.80;;
65567;SDS011;52211;50.154;8.682;2023-05-07T01:01:48;1.53;;;1.43;;
65567;SDS011;52211;50.154;8.682;2023-05-07T01:04:20;1.53;;;1.40;;
65567;SDS011;52211;50.154;8.682;2023-05-07T01:06:48;1.67;;;1.40;;
65567;SDS011;52211;50.154;8.682;2023-05-07T01:09:21;3.03;;;1.90;;
65567;SDS011;52211;50.154;8.682;2023-05-07T01:11:55;1.17;;;1.17;;
65567;SDS011;52211;50.154;8.682;2023-05-07T01:14:28;1.73;;;1.60;;
65567;SDS011;52211;50.154;8.682;2023-05-07T01:16:58;1.40;;;1.30;;
65567;SDS011;52211;50.154;8.682;2023-05-07T01:19:25;1.53;;;1.43;;
65567;SDS011;52211;50.154;8.682;2023-05-07T01:21:55;2.53;;;1.30;;
65567;SDS011;52211;50.154;8.682;2023-05-07T01:24:46;2.27;;;1.20;;
65567;SDS011;52211;50.154;8.682;2023-05-07T01:27:16;1.63;;;1.53;;
65567;SDS011;52211;50.154;8.682;2023-05-07T01:29:45;1.60;;;1.50;;
65567;SDS011;52211;50.154;8.682;2023-05-07T01:32:12;1.30;;;1.20;;
65567;SDS011;52211;50.154;8.682;2023-05-07T01:34:47;1.40;;;1.30;;
65567;SDS011;52211;50.154;8.682;2023-05-07T01:37:21;1.43;;;1.40;;
65567;SDS011;52211;50.154;8.682;2023-05-07T01:39:54;1.67;;;1.57;;
65567;SDS011;52211;50.154;8.682;2023-05-07T01:42:27;1.90;;;1.60;;
65567;SDS011;52211;50.154;8.682;2023-05-07T01:45:01;2.13;;;1.70;;
65567;SDS011;52211;50.154;8.682;2023-05-07T01:47:29;1.70;;;1.60;;
65567;SDS011;52211;50.154;8.682;2023-05-07T01:49:57;1.47;;;1.20;;
65567;SDS011;52211;50.154;8.682;2023-05-07T01:52:25;1.60;;;1.50;;
65567;SDS011;52211;50.154;8.682;2023-05-07T01:54:58;1.40;;;1.30;;
65567;SDS011;52211;50.154;8.682;2023-05-07T01:57:27;1.60;;;1.50;;
65567;SDS011;52211;50.154;8.682;2023-05-07T01:59:55;1.60;;;1.23;;
65567;SDS011;52211;50.154;8.682;2023-05-07T02:02:22;1.60;;;1.50;;
65567;SDS011;52211;50.154;8.682;2023-05-07T02:04:54;1.50;;;1.40;;
65567;SDS011;52211;50.154;8.682;2023-05-07T02:07:21;1.90;;;1.50;;
65567;SDS011;52211;50.154;8.682;2023-05-07T02:09:48;2.13;;;2.03;;
65567;SDS011;52211;50.154;8.682;2023-05-07T02:12:15;1.60;;;1.50;;
65567;SDS011;52211;50.154;8.682;2023-05-07T02:14:46;1.70;;;1.60;;
65567;SDS011;52211;50.154;8.682;2023-05-07T02:17:13;1.90;;;1.40;;
65567;SDS011;52211;50.154;8.682;2023-05-07T02:19:42;1.90;;;1.70;;
65567;SDS011;52211;50.154;8.682;2023-05-07T02:22:16;1.37;;;1.30;;
65567;SDS011;52211;50.154;8.682;2023-05-07T02:24:47;1.70;;;1.60;;
65567;SDS011;52211;50.154;8.682;2023-05-07T02:27:19;1.63;;;1.53;;
65567;SDS011;52211;50.154;8.682;2023-05-07T02:29:46;1.30;;;1.20;;
65567;SDS011;52211;50.154;8.682;2023-05-07T02:32:15;1.60;;;1.50;;
65567;SDS011;52211;50.154;8.682;2023-05-07T02:34:42;2.27;;;1.37;;
65567;SDS011;52211;50.154;8.682;2023-05-07T02:37:12;2.23;;;1.47;;
65567;SDS011;52211;50.154;8.682;2023-05-07T02:39:41;1.70;;;1.60;;
65567;SDS011;52211;50.154;8.682;2023-05-07T02:42:08;1.70;;;1.60;;
65567;SDS011;52211;50.154;8.682;2023-05-07T02:44:37;1.60;;;1.50;;
65567;SDS011;52211;50.154;8.682;2023-05-07T02:47:05;1.70;;;1.60;;
65567;SDS011;52211;50.154;8.682;2023-05-07T02:49:37;1.63;;;1.53;;
65567;SDS011;52211;50.154;8.682;2023-05-07T02:52:07;1.40;;;1.30;;
65567;SDS011;52211;50.154;8.682;2023-05-07T02:54:37;1.80;;;1.70;;
65567;SDS011;52211;50.154;8.682;2023-05-07T02:57:04;1.97;;;1.87;;
65567;SDS011;52211;50.154;8.682;2023-05-07T02:59:31;1.73;;;1.63;;
65567;SDS011;52211;50.154;8.682;2023-05-07T03:02:03;2.03;;;1.83;;
65567;SDS011;52211;50.154;8.682;2023-05-07T03:04:32;1.63;;;1.50;;
65567;SDS011;52211;50.154;8.682;2023-05-07T03:06:59;1.23;;;1.23;;
65567;SDS011;52211;50.154;8.682;2023-05-07T03:09:26;1.73;;;1.63;;
65567;SDS011;52211;50.154;8.682;2023-05-07T03:11:56;2.20;;;1.43;;
65567;SDS011;52211;50.154;8.682;2023-05-07T03:14:25;1.30;;;1.27;;
65567;SDS011;52211;50.154;8.682;2023-05-07T03:16:56;1.93;;;1.83;;
65567;SDS011;52211;50.154;8.682;2023-05-07T03:19:25;1.87;;;1.47;;
65567;SDS011;52211;50.154;8.682;2023-05-07T03:21:57;3.13;;;1.77;;
65567;SDS011;52211;50.154;8.682;2023-05-07T03:24:26;2.70;;;1.50;;
65567;SDS011;52211;50.154;8.682;2023-05-07T03:26:53;2.10;;;1.53;;
65567;SDS011;52211;50.154;8.682;2023-05-07T03:29:23;1.73;;;1.63;;
65567;SDS011;52211;50.154;8.682;2023-05-07T03:31:52;1.40;;;1.30;;
65567;SDS011;52211;50.154;8.682;2023-05-07T03:34:20;1.90;;;1.70;;
65567;SDS011;52211;50.154;8.682;2023-05-07T03:36:48;1.60;;;1.50;;
65567;SDS011;52211;50.154;8.682;2023-05-07T03:39:16;1.40;;;1.30;;
65567;SDS011;52211;50.154;8.682;2023-05-07T03:41:43;2.00;;;1.90;;
65567;SDS011;52211;50.154;8.682;2023-05-07T03:44:13;1.60;;;1.50;;
65567;SDS011;52211;50.154;8.682;2023-05-07T03:46:40;2.63;;;1.80;;
65567;SDS011;52211;50.154;8.682;2023-05-07T03:49:09;1.93;;;1.80;;
65567;SDS011;52211;50.154;8.682;2023-05-07T03:51:36;2.17;;;1.63;;
65567;SDS011;52211;50.154;8.682;2023-05-07T03:54:07;2.60;;;1.40;;
65567;SDS011;52211;50.154;8.682;2023-05-07T03:56:34;1.73;;;1.63;;
65567;SDS011;52211;50.154;8.682;2023-05-07T03:59:03;1.60;;;1.50;;
65567;SDS011;52211;50.154;8.682;2023-05-07T04:01:36;1.60;;;1.50;;
65567;SDS011;52211;50.154;8.682;2023-05-07T04:04:09;1.80;;;1.70;;
65567;SDS011;52211;50.154;8.682;2023-05-07T04:06:36;3.27;;;1.90;;
65567;SDS011;52211;50.154;8.682;2023-05-07T04:09:03;1.63;;;1.53;;
65567;SDS011;52211;50.154;8.682;2023-05-07T04:11:30;2.40;;;1.50;;
65567;SDS011;52211;50.154;8.682;2023-05-07T04:13:57;2.30;;;1.50;;
65567;SDS011;52211;50.154;8.682;2023-05-07T04:16:26;1.90;;;1.57;;
65567;SDS011;52211;50.154;8.682;2023-05-07T04:18:54;2.20;;;2.00;;
65567;SDS011;52211;50.154;8.682;2023-05-07T04:21:21;2.00;;;1.80;;
65567;SDS011;52211;50.154;8.682;2023-05-07T04:23:53;1.30;;;1.20;;
65567;SDS011;52211;50.154;8.682;2023-05-07T04:26:20;1.77;;;1.67;;
65567;SDS011;52211;50.154;8.682;2023-05-07T04:28:47;2.30;;;1.93;;
65567;SDS011;52211;50.154;8.682;2023-05-07T04:31:17;1.90;;;1.70;;
65567;SDS011;52211;50.154;8.682;2023-05-07T04:33:47;2.83;;;1.60;;
65567;SDS011;52211;50.154;8.682;2023-05-07T04:36:17;1.57;;;1.47;;
65567;SDS011;52211;50.154;8.682;2023-05-07T04:38:57;1.80;;;1.70;;
65567;SDS011;52211;50.154;8.682;2023-05-07T04:41:29;1.70;;;1.60;;
65567;SDS011;52211;50.154;8.682;2023-05-07T04:43:59;1.77;;;1.67;;
65567;SDS011;52211;50.154;8.682;2023-05-07T04:46:31;1.73;;;1.63;;
65567;SDS011;52211;50.154;8.682;2023-05-07T04:49:02;1.73;;;1.63;;
65567;SDS011;52211;50.154;8.682;2023-05-07T04:51:31;1.93;;;1.83;;
65567;SDS011;52211;50.154;8.682;2023-05-07T04:53:59;2.20;;;1.87;;
65567;SDS011;52211;50.154;8.682;2023-05-07T04:56:29;3.50;;;1.90;;
65567;SDS011;52211;50.154;8.682;2023-05-07T04:58:57;2.10;;;2.00;;
65567;SDS011;52211;50.154;8.682;2023-05-07T05:01:28;2.20;;;1.90;;
65567;SDS011;52211;50.154;8.682;2023-05-07T05:03:57;1.60;;;1.50;;
65567;SDS011;52211;50.154;8.682;2023-05-07T05:06:29;5.40;;;1.87;;
65567;SDS011;52211;50.154;8.682;2023-05-07T05:08:59;2.17;;;1.70;;
65567;SDS011;52211;50.154;8.682;2023-05-07T05:11:32;2.23;;;2.07;;
65567;SDS011;52211;50.154;8.682;2023-05-07T05:14:03;4.03;;;2.27;;
65567;SDS011;52211;50.154;8.682;2023-05-07T05:16:31;1.70;;;1.60;;
65567;SDS011;52211;50.154;8.682;2023-05-07T05:19:02;2.03;;;1.93;;
65567;SDS011;52211;50.154;8.682;2023-05-07T05:21:39;2.00;;;1.90;;
65567;SDS011;52211;50.154;8.682;2023-05-07T05:24:11;2.70;;;2.27;;
65567;SDS011;52211;50.154;8.682;2023-05-07T05:26:43;2.13;;;1.90;;
65567;SDS011;52211;50.154;8.682;2023-05-07T05:29:12;2.27;;;1.60;;
65567;SDS011;52211;50.154;8.682;2023-05-07T05:31:43;2.07;;;1.97;;
65567;SDS011;52211;50.154;8.682;2023-05-07T05:34:13;2.30;;;2.10;;
65567;SDS011;52211;50.154;8.682;2023-05-07T05:36:44;1.77;;;1.67;;
65567;SDS011;52211;50.154;8.682;2023-05-07T05:39:15;1.83;;;1.73;;
65567;SDS011;52211;50.154;8.682;2023-05-07T05:41:45;2.40;;;2.00;;
65567;SDS011;52211;50.154;8.682;2023-05-07T05:44:15;2.20;;;2.10;;
65567;SDS011;52211;50.154;8.682;2023-05-07T05:46:44;1.87;;;1.77;;
65567;SDS011;52211;50.154;8.682;2023-05-07T05:49:11;2.67;;;2.43;;
65567;SDS011;52211;50.154;8.682;2023-05-07T05:51:40;2.07;;;1.97;;
65567;SDS011;52211;50.154;8.682;2023-05-07T05:54:12;1.70;;;1.60;;
65567;SDS011;52211;50.154;8.682;2023-05-07T05:56:41;2.13;;;1.97;;
65567;SDS011;52211;50.154;8.682;2023-05-07T05:59:16;2.20;;;2.00;;
65567;SDS011;52211;50.154;8.682;2023-05-07T06:01:46;2.10;;;1.90;;
65567;SDS011;52211;50.154;8.682;2023-05-07T06:04:18;2.40;;;1.73;;
65567;SDS011;52211;50.154;8.682;2023-05-07T06:06:47;2.13;;;1.97;;
65567;SDS011;52211;50.154;8.682;2023-05-07T06:09:23;1.70;;;1.60;;
65567;SDS011;52211;50.154;8.682;2023-05-07T06:11:50;1.90;;;1.80;;
65567;SDS011;52211;50.154;8.682;2023-05-07T06:14:18;2.83;;;2.00;;
65567;SDS011;52211;50.154;8.682;2023-05-07T06:16:47;3.77;;;1.93;;
65567;SDS011;52211;50.154;8.682;2023-05-07T06:19:19;1.90;;;1.70;;
65567;SDS011;52211;50.154;8.682;2023-05-07T06:21:53;2.30;;;2.10;;
65567;SDS011;52211;50.154;8.682;2023-05-07T06:24:27;1.80;;;1.70;;
65567;SDS011;52211;50.154;8.682;2023-05-07T06:26:59;2.20;;;1.60;;
65567;SDS011;52211;50.154;8.682;2023-05-07T06:29:28;2.30;;;2.10;;
65567;SDS011;52211;50.154;8.682;2023-05-07T06:32:06;3.33;;;1.90;;
65567;SDS011;52211;50.154;8.682;2023-05-07T06:34:34;2.23;;;2.03;;
65567;SDS011;52211;50.154;8.682;2023-05-07T06:37:08;2.37;;;2.00;;
65567;SDS011;52211;50.154;8.682;2023-05-07T06:39:57;2.00;;;1.90;;
65567;SDS011;52211;50.154;8.682;2023-05-07T06:42:30;1.67;;;1.57;;
65567;SDS011;52211;50.154;8.682;2023-05-07T06:45:16;1.60;;;1.50;;
65567;SDS011;52211;50.154;8.682;2023-05-07T06:47:45;2.50;;;2.00;;
65567;SDS011;52211;50.154;8.682;2023-05-07T06:50:17;1.77;;;1.67;;
65567;SDS011;52211;50.154;8.682;2023-05-07T06:52:44;1.83;;;1.73;;
65567;SDS011;52211;50.154;8.682;2023-05-07T06:55:16;2.20;;;1.83;;
65567;SDS011;52211;50.154;8.682;2023-05-07T06:57:46;2.60;;;2.40;;
65567;SDS011;52211;50.154;8.682;2023-05-07T07:00:17;1.93;;;1.83;;
65567;SDS011;52211;50.154;8.682;2023-05-07T07:02:49;2.10;;;2.00;;
65567;SDS011;52211;50.154;8.682;2023-05-07T07:05:20;2.25;;;2.10;;
65567;SDS011;52211;50.154;8.682;2023-05-07T07:07:52;2.23;;;1.83;;
65567;SDS011;52211;50.154;8.682;2023-05-07T07:10:27;1.97;;;1.87;;
65567;SDS011;52211;50.154;8.682;2023-05-07T07:12:55;2.17;;;1.97;;
65567;SDS011;52211;50.154;8.682;2023-05-07T07:15:22;1.90;;;1.80;;
65567;SDS011;52211;50.154;8.682;2023-05-07T07:17:53;1.83;;;1.73;;
65567;SDS011;52211;50.154;8.682;2023-05-07T07:20:24;2.80;;;2.03;;
65567;SDS011;52211;50.154;8.682;2023-05-07T07:22:54;2.20;;;2.00;;
65567;SDS011;52211;50.154;8.682;2023-05-07T07:25:23;2.43;;;2.23;;
65567;SDS011;52211;50.154;8.682;2023-05-07T07:27:53;2.47;;;2.00;;
65567;SDS011;52211;50.154;8.682;2023-05-07T07:30:21;2.13;;;2.03;;
65567;SDS011;52211;50.154;8.682;2023-05-07T07:32:52;1.90;;;1.80;;
65567;SDS011;52211;50.154;8.682;2023-05-07T07:35:32;2.27;;;2.03;;
65567;SDS011;52211;50.154;8.682;2023-05-07T07:38:03;2.23;;;2.03;;
65567;SDS011;52211;50.154;8.682;2023-05-07T07:40:39;2.53;;;2.40;;
65567;SDS011;52211;50.154;8.682;2023-05-07T07:43:10;2.40;;;2.20;;
65567;SDS011;52211;50.154;8.682;2023-05-07T07:45:37;2.43;;;2.27;;
65567;SDS011;52211;50.154;8.682;2023-05-07T07:48:09;2.13;;;2.03;;
65567;SDS011;52211;50.154;8.682;2023-05-07T07:50:40;1.93;;;1.83;;
65567;SDS011;52211;50.154;8.682;2023-05-07T07:53:14;2.60;;;2.40;;
65567;SDS011;52211;50.154;8.682;2023-05-07T07:55:44;3.00;;;2.67;;
65567;SDS011;52211;50.154;8.682;2023-05-07T07:58:19;3.00;;;2.80;;
65567;SDS011;52211;50.154;8.682;2023-05-07T08:00:48;3.20;;;2.80;;
65567;SDS011;52211;50.154;8.682;2023-05-07T08:03:17;2.67;;;2.47;;
65567;SDS011;52211;50.154;8.682;2023-05-07T08:05:51;2.83;;;2.63;;
65567;SDS011;52211;50.154;8.682;2023-05-07T08:08:23;2.33;;;2.23;;
65567;SDS011;52211;50.154;8.682;2023-05-07T08:10:52;2.03;;;1.93;;
65567;SDS011;52211;50.154;8.682;2023-05-07T08:13:26;2.50;;;2.30;;
65567;SDS011;52211;50.154;8.682;2023-05-07T08:15:53;2.90;;;2.70;;
65567;SDS011;52211;50.154;8.682;2023-05-07T08:18:22;2.30;;;2.20;;
65567;SDS011;52211;50.154;8.682;2023-05-07T08:20:52;2.40;;;2.30;;
65567;SDS011;52211;50.154;8.682;2023-05-07T08:23:24;2.20;;;2.10;;
65567;SDS011;52211;50.154;8.682;2023-05-07T08:25:52;2.57;;;2.37;;
65567;SDS011;52211;50.154;8.682;2023-05-07T08:28:21;2.40;;;2.20;;
65567;SDS011;52211;50.154;8.682;2023-05-07T08:30:50;2.73;;;2.30;;
65567;SDS011;52211;50.154;8.682;2023-05-07T08:33:20;3.27;;;3.07;;
65567;SDS011;52211;50.154;8.682;2023-05-07T08:35:47;3.13;;;2.93;;
65567;SDS011;52211;50.154;8.682;2023-05-07T08:38:14;2.23;;;2.13;;
65567;SDS011;52211;50.154;8.682;2023-05-07T08:40:41;2.30;;;2.20;;
65567;SDS011;52211;50.154;8.682;2023-05-07T08:43:16;2.43;;;2.23;;
65567;SDS011;52211;50.154;8.682;2023-05-07T08:45:51;2.10;;;2.00;;
65567;SDS011;52211;50.154;8.682;2023-05-07T08:48:26;2.23;;;2.03;;
65567;SDS011;52211;50.154;8.682;2023-05-07T08:51:08;3.40;;;2.43;;
65567;SDS011;52211;50.154;8.682;2023-05-07T08:53:42;2.57;;;2.37;;
65567;SDS011;52211;50.154;8.682;2023-05-07T08:56:14;2.30;;;2.20;;
65567;SDS011;52211;50.154;8.682;2023-05-07T08:58:43;3.20;;;2.73;;
65567;SDS011;52211;50.154;8.682;2023-05-07T09:01:17;2.47;;;2.27;;
65567;SDS011;52211;50.154;8.682;2023-05-07T09:03:50;2.40;;;2.23;;
65567;SDS011;52211;50.154;8.682;2023-05-07T09:06:25;2.40;;;2.20;;
65567;SDS011;52211;50.154;8.682;2023-05-07T09:08:53;2.30;;;2.20;;
65567;SDS011;52211;50.154;8.682;2023-05-07T09:11:29;2.83;;;2.67;;
65567;SDS011;52211;50.154;8.682;2023-05-07T09:14:00;2.30;;;2.20;;
65567;SDS011;52211;50.154;8.682;2023-05-07T09:16:33;3.93;;;2.90;;
65567;SDS011;52211;50.154;8.682;2023-05-07T09:19:03;3.00;;;2.80;;
65567;SDS011;52211;50.154;8.682;2023-05-07T09:21:35;2.30;;;2.20;;
65567;SDS011;52211;50.154;8.682;2023-05-07T09:24:06;2.67;;;2.47;;
65567;SDS011;52211;50.154;8.682;2023-05-07T09:26:37;2.63;;;2.43;;
65567;SDS011;52211;50.154;8.682;2023-05-07T09:29:10;2.77;;;2.57;;
65567;SDS011;52211;50.154;8.682;2023-05-07T09:31:39;3.53;;;2.77;;
65567;SDS011;52211;50.154;8.682;2023-05-07T09:34:12;2.60;;;2.50;;
65567;SDS011;52211;50.154;8.682;2023-05-07T09:36:48;2.67;;;2.47;;
65567;SDS011;52211;50.154;8.682;2023-05-07T09:39:20;2.90;;;2.70;;
65567;SDS011;52211;50.154;8.682;2023-05-07T09:41:49;2.87;;;2.67;;
65567;SDS011;52211;50.154;8.682;2023-05-07T09:44:27;3.73;;;3.17;;
65567;SDS011;52211;50.154;8.682;2023-05-07T09:47:04;3.47;;;3.17;;
65567;SDS011;52211;50.154;8.682;2023-05-07T09:49:42;3.20;;;2.90;;
65567;SDS011;52211;50.154;8.682;2023-05-07T09:52:25;2.80;;;2.60;;
65567;SDS011;52211;50.154;8.682;2023-05-07T09:55:02;2.90;;;2.70;;
65567;SDS011;52211;50.154;8.682;2023-05-07T09:57:33;2.43;;;2.23;;
65567;SDS011;52211;50.154;8.682;2023-05-07T10:00:09;2.57;;;2.47;;
65567;SDS011;52211;50.154;8.682;2023-05-07T10:02:57;2.73;;;2.53;;
65567;SDS011;52211;50.154;8.682;2023-05-07T10:05:37;2.40;;;2.30;;
65567;SDS011;52211;50.154;8.682;2023-05-07T10:08:08;2.70;;;2.50;;
65567;SDS011;52211;50.154;8.682;2023-05-07T10:10:38;2.50;;;2.30;;
65567;SDS011;52211;50.154;8.682;2023-05-07T10:13:16;2.53;;;2.40;;
65567;SDS011;52211;50.154;8.682;2023-05-07T10:15:49;3.57;;;2.80;;
65567;SDS011;52211;50.154;8.682;2023-05-07T10:18:20;2.40;;;2.30;;
65567;SDS011;52211;50.154;8.682;2023-05-07T10:20:53;2.63;;;2.43;;
65567;SDS011;52211;50.154;8.682;2023-05-07T10:24:05;2.80;;;2.60;;
65567;SDS011;52211;50.154;8.682;2023-05-07T10:26:35;2.73;;;2.53;;
65567;SDS011;52211;50.154;8.682;2023-05-07T10:29:18;2.90;;;2.70;;
65567;SDS011;52211;50.154;8.682;2023-05-07T10:34:56;3.10;;;2.90;;
65567;SDS011;52211;50.154;8.682;2023-05-07T10:37:31;2.90;;;2.70;;
65567;SDS011;52211;50.154;8.682;2023-05-07T10:40:01;2.10;;;2.00;;
65567;SDS011;52211;50.154;8.682;2023-05-07T10:42:36;2.30;;;2.20;;
65567;SDS011;52211;50.154;8.682;2023-05-07T10:45:14;2.77;;;2.57;;
65567;SDS011;52211;50.154;8.682;2023-05-07T10:51:19;2.63;;;2.43;;
65567;SDS011;52211;50.154;8.682;2023-05-07T10:56:45;2.57;;;2.40;;
65567;SDS011;52211;50.154;8.682;2023-05-07T11:01:58;2.80;;;2.60;;
65567;SDS011;52211;50.154;8.682;2023-05-07T11:04:43;2.30;;;2.10;;
65567;SDS011;52211;50.154;8.682;2023-05-07T11:07:26;2.60;;;2.50;;
65567;SDS011;52211;50.154;8.682;2023-05-07T11:10:00;2.63;;;2.50;;
65567;SDS011;52211;50.154;8.682;2023-05-07T11:15:13;2.90;;;2.70;;
65567;SDS011;52211;50.154;8.682;2023-05-07T11:17:56;2.97;;;2.67;;
65567;SDS011;52211;50.154;8.682;2023-05-07T11:26:10;5.30;;;2.47;;
65567;SDS011;52211;50.154;8.682;2023-05-07T11:28:43;3.13;;;2.80;;
65567;SDS011;52211;50.154;8.682;2023-05-07T11:31:10;2.70;;;2.50;;
65567;SDS011;52211;50.154;8.682;2023-05-07T11:33:43;2.70;;;2.60;;
65567;SDS011;52211;50.154;8.682;2023-05-07T11:36:14;2.50;;;2.30;;
65567;SDS011;52211;50.154;8.682;2023-05-07T11:38:46;2.63;;;2.43;;
65567;SDS011;52211;50.154;8.682;2023-05-07T11:41:18;2.50;;;2.30;;
65567;SDS011;52211;50.154;8.682;2023-05-07T11:43:53;2.83;;;2.50;;
65567;SDS011;52211;50.154;8.682;2023-05-07T11:46:26;3.40;;;2.33;;
65567;SDS011;52211;50.154;8.682;2023-05-07T11:48:57;2.17;;;2.00;;
65567;SDS011;52211;50.154;8.682;2023-05-07T11:51:29;2.53;;;2.33;;
65567;SDS011;52211;50.154;8.682;2023-05-07T11:54:03;2.20;;;2.10;;
65567;SDS011;52211;50.154;8.682;2023-05-07T11:56:34;2.10;;;1.90;;
65567;SDS011;52211;50.154;8.682;2023-05-07T11:59:02;2.00;;;1.90;;
65567;SDS011;52211;50.154;8.682;2023-05-07T12:01:45;2.27;;;2.17;;
65567;SDS011;52211;50.154;8.682;2023-05-07T12:04:19;1.60;;;1.50;;
65567;SDS011;52211;50.154;8.682;2023-05-07T12:06:55;1.90;;;1.80;;
65567;SDS011;52211;50.154;8.682;2023-05-07T12:09:25;2.30;;;2.10;;
65567;SDS011;52211;50.154;8.682;2023-05-07T12:11:57;2.10;;;2.00;;
65567;SDS011;52211;50.154;8.682;2023-05-07T12:14:43;2.40;;;1.80;;
65567;SDS011;52211;50.154;8.682;2023-05-07T12:17:14;1.93;;;1.83;;
65567;SDS011;52211;50.154;8.682;2023-05-07T12:19:43;2.20;;;2.10;;
65567;SDS011;52211;50.154;8.682;2023-05-07T12:22:14;2.10;;;2.00;;
65567;SDS011;52211;50.154;8.682;2023-05-07T12:24:48;2.00;;;1.90;;
65567;SDS011;52211;50.154;8.682;2023-05-07T12:27:23;2.13;;;2.03;;
65567;SDS011;52211;50.154;8.682;2023-05-07T12:29:53;2.20;;;2.10;;
65567;SDS011;52211;50.154;8.682;2023-05-07T12:32:20;2.90;;;2.60;;
65567;SDS011;52211;50.154;8.682;2023-05-07T12:34:51;2.57;;;2.37;;
65567;SDS011;52211;50.154;8.682;2023-05-07T12:37:23;2.30;;;2.20;;
65567;SDS011;52211;50.154;8.682;2023-05-07T12:40:08;2.37;;;2.17;;
65567;SDS011;52211;50.154;8.682;2023-05-07T12:42:40;2.90;;;2.40;;
65567;SDS011;52211;50.154;8.682;2023-05-07T12:45:11;3.83;;;2.63;;
65567;SDS011;52211;50.154;8.682;2023-05-07T12:47:44;2.03;;;1.93;;
65567;SDS011;52211;50.154;8.682;2023-05-07T12:50:15;1.90;;;1.80;;
65567;SDS011;52211;50.154;8.682;2023-05-07T12:52:47;2.23;;;2.13;;
65567;SDS011;52211;50.154;8.682;2023-05-07T12:55:19;2.30;;;2.13;;
65567;SDS011;52211;50.154;8.682;2023-05-07T12:57:48;3.03;;;2.40;;
65567;SDS011;52211;50.154;8.682;2023-05-07T13:00:32;7.90;;;4.13;;
65567;SDS011;52211;50.154;8.682;2023-05-07T13:03:06;5.33;;;3.60;;
65567;SDS011;52211;50.154;8.682;2023-05-07T13:05:38;3.60;;;2.87;;
65567;SDS011;52211;50.154;8.682;2023-05-07T13:08:07;2.97;;;2.70;;
65567;SDS011;52211;50.154;8.682;2023-05-07T13:10:35;2.30;;;2.00;;
65567;SDS011;52211;50.154;8.682;2023-05-07T13:13:07;2.73;;;2.60;;
65567;SDS011;52211;50.154;8.682;2023-05-07T13:15:34;2.20;;;2.10;;
65567;SDS011;52211;50.154;8.682;2023-05-07T13:18:03;2.70;;;2.30;;
65567;SDS011;52211;50.154;8.682;2023-05-07T13:20:33;2.13;;;1.97;;
65567;SDS011;52211;50.154;8.682;2023-05-07T13:23:02;2.40;;;2.20;;
65567;SDS011;52211;50.154;8.682;2023-05-07T13:25:30;2.17;;;2.07;;
65567;SDS011;52211;50.154;8.682;2023-05-07T13:28:02;2.40;;;2.20;;
65567;SDS011;52211;50.154;8.682;2023-05-07T13:30:39;1.83;;;1.73;;
65567;SDS011;52211;50.154;8.682;2023-05-07T13:33:07;2.50;;;2.30;;
65567;SDS011;52211;50.154;8.682;2023-05-07T13:35:34;2.33;;;2.20;;
65567;SDS011;52211;50.154;8.682;2023-05-07T13:38:01;2.47;;;2.27;;
65567;SDS011;52211;50.154;8.682;2023-05-07T13:40:32;3.23;;;1.93;;
65567;SDS011;52211;50.154;8.682;2023-05-07T13:42:59;1.83;;;1.73;;
65567;SDS011;52211;50.154;8.682;2023-05-07T13:45:29;2.00;;;1.80;;
65567;SDS011;52211;50.154;8.682;2023-05-07T13:47:58;2.27;;;1.50;;
65567;SDS011;52211;50.154;8.682;2023-05-07T13:50:31;1.93;;;1.83;;
65567;SDS011;52211;50.154;8.682;2023-05-07T13:52:58;2.30;;;2.10;;
65567;SDS011;52211;50.154;8.682;2023-05-07T13:55:28;2.40;;;2.27;;
65567;SDS011;52211;50.154;8.682;2023-05-07T13:57:58;1.73;;;1.63;;
65567;SDS011;52211;50.154;8.682;2023-05-07T14:00:32;2.30;;;2.20;;
65567;SDS011;52211;50.154;8.682;2023-05-07T14:03:01;2.00;;;1.87;;
65567;SDS011;52211;50.154;8.682;2023-05-07T14:05:34;2.20;;;2.10;;
65567;SDS011;52211;50.154;8.682;2023-05-07T14:08:06;2.13;;;2.03;;
65567;SDS011;52211;50.154;8.682;2023-05-07T14:10:38;2.17;;;1.70;;
65567;SDS011;52211;50.154;8.682;2023-05-07T14:13:08;1.80;;;1.70;;
65567;SDS011;52211;50.154;8.682;2023-05-07T14:15:37;2.00;;;1.70;;
65567;SDS011;52211;50.154;8.682;2023-05-07T14:18:08;1.63;;;1.53;;
65567;SDS011;52211;50.154;8.682;2023-05-07T14:20:40;2.27;;;2.07;;
65567;SDS011;52211;50.154;8.682;2023-05-07T14:23:12;2.50;;;2.30;;
65567;SDS011;52211;50.154;8.682;2023-05-07T14:25:45;2.83;;;2.63;;
65567;SDS011;52211;50.154;8.682;2023-05-07T14:28:13;3.37;;;3.07;;
65567;SDS011;52211;50.154;8.682;2023-05-07T14:30:45;3.13;;;2.87;;
65567;SDS011;52211;50.154;8.682;2023-05-07T14:33:13;2.20;;;2.00;;
65567;SDS011;52211;50.154;8.682;2023-05-07T14:35:42;2.43;;;2.30;;
65567;SDS011;52211;50.154;8.682;2023-05-07T14:38:17;2.00;;;1.90;;
65567;SDS011;52211;50.154;8.682;2023-05-07T14:40:46;1.90;;;1.80;;
65567;SDS011;52211;50.154;8.682;2023-05-07T14:43:21;2.03;;;1.93;;
65567;SDS011;52211;50.154;8.682;2023-05-07T14:45:53;1.90;;;1.80;;
65567;SDS011;52211;50.154;8.682;2023-05-07T14:48:22;2.03;;;1.93;;
65567;SDS011;52211;50.154;8.682;2023-05-07T14:50:51;1.80;;;1.70;;
65567;SDS011;52211;50.154;8.682;2023-05-07T14:53:23;1.83;;;1.70;;
65567;SDS011;52211;50.154;8.682;2023-05-07T14:55:54;1.30;;;1.30;;
65567;SDS011;52211;50.154;8.682;2023-05-07T14:58:21;1.43;;;1.40;;
65567;SDS011;52211;50.154;8.682;2023-05-07T15:00:51;1.90;;;1.67;;
65567;SDS011;52211;50.154;8.682;2023-05-07T15:03:20;1.87;;;1.77;;
65567;SDS011;52211;50.154;8.682;2023-05-07T15:05:48;1.67;;;1.57;;
65567;SDS011;52211;50.154;8.682;2023-05-07T15:08:18;1.83;;;1.50;;
65567;SDS011;52211;50.154;8.682;2023-05-07T15:10:47;2.20;;;1.40;;
65567;SDS011;52211;50.154;8.682;2023-05-07T15:13:19;1.63;;;1.53;;
65567;SDS011;52211;50.154;8.682;2023-05-07T15:15:46;1.77;;;1.67;;
65567;SDS011;52211;50.154;8.682;2023-05-07T15:18:20;1.80;;;1.70;;
65567;SDS011;52211;50.154;8.682;2023-05-07T15:20:52;1.83;;;1.73;;
65567;SDS011;52211;50.154;8.682;2023-05-07T15:23:21;2.40;;;1.70;;
65567;SDS011;52211;50.154;8.682;2023-05-07T15:25:48;1.50;;;1.40;;
65567;SDS011;52211;50.154;8.682;2023-05-07T15:28:18;2.20;;;1.47;;
65567;SDS011;52211;50.154;8.682;2023-05-07T15:30:48;1.93;;;1.63;;
65567;SDS011;52211;50.154;8.682;2023-05-07T15:33:17;1.60;;;1.50;;